createdAt,value
2022-10-12T00:01:53.141Z,13.50
2022-10-12T00:04:19.940Z,13.57
2022-10-12T00:06:46.666Z,12.85
2022-10-12T00:09:13.468Z,13.63
2022-10-12T00:11:41.133Z,13.27
2022-10-12T00:14:07.873Z,13.32
2022-10-12T00:16:35.015Z,13.82
2022-10-12T00:19:02.047Z,13.45
2022-10-12T00:21:30.281Z,13.48
2022-10-12T00:23:59.195Z,14.98
2022-10-12T00:26:26.516Z,13.07
2022-10-12T00:29:01.611Z,14.32
2022-10-12T00:31:29.741Z,13.85
2022-10-12T00:33:59.950Z,14.15
2022-10-12T00:36:29.991Z,14.98
2022-10-12T00:38:56.760Z,14.52
2022-10-12T00:41:27.219Z,13.32
2022-10-12T00:43:58.188Z,14.00
2022-10-12T00:46:44.932Z,15.02
2022-10-12T00:49:18.142Z,14.40
2022-10-12T00:54:20.531Z,14.48
2022-10-12T00:56:50.746Z,15.07
2022-10-12T00:59:31.646Z,14.95
2022-10-12T01:01:58.648Z,13.52
2022-10-12T01:04:25.878Z,16.25
2022-10-12T01:06:53.206Z,14.98
2022-10-12T01:09:21.529Z,14.70
2022-10-12T01:11:48.612Z,14.55
2022-10-12T01:14:16.677Z,13.52
2022-10-12T01:17:02.239Z,14.20
2022-10-12T01:20:20.307Z,13.82
2022-10-12T01:23:02.639Z,13.95
2022-10-12T01:26:06.809Z,14.25
2022-10-12T01:29:04.545Z,13.55
2022-10-12T01:31:40.912Z,14.90
2022-10-12T01:34:18.365Z,14.68
2022-10-12T01:36:50.402Z,14.55
2022-10-12T01:39:25.419Z,14.52
2022-10-12T01:41:58.567Z,14.48
2022-10-12T01:46:55.707Z,14.80
2022-10-12T01:49:29.261Z,14.95
2022-10-12T01:52:08.910Z,14.65
2022-10-12T01:55:13.439Z,15.15
2022-10-12T01:57:50.722Z,14.38
2022-10-12T02:00:18.663Z,15.07
2022-10-12T02:03:12.908Z,14.48
2022-10-12T02:05:58.130Z,15.02
2022-10-12T02:08:48.470Z,15.88
2022-10-12T02:11:18.845Z,16.05
2022-10-12T02:13:53.873Z,14.77
2022-10-12T02:16:26.265Z,15.50
2022-10-12T02:18:55.546Z,16.15
2022-10-12T02:21:29.232Z,15.90
2022-10-12T02:23:58.714Z,16.42
2022-10-12T02:26:25.658Z,15.93
2022-10-12T02:28:52.748Z,15.70
2022-10-12T02:31:35.852Z,15.07
2022-10-12T02:34:18.434Z,16.15
2022-10-12T02:37:09.676Z,15.57
2022-10-12T02:39:50.295Z,20.17
2022-10-12T02:42:32.142Z,17.55
2022-10-12T02:45:07.533Z,14.35
2022-10-12T02:47:36.683Z,15.15
2022-10-12T02:50:05.075Z,14.20
2022-10-12T02:52:32.517Z,15.27
2022-10-12T02:54:59.332Z,16.13
2022-10-12T02:57:26.290Z,16.05
2022-10-12T02:59:53.036Z,20.40
2022-10-12T03:02:19.742Z,21.75
2022-10-12T03:04:46.470Z,20.70
2022-10-12T03:07:13.219Z,21.13
2022-10-12T03:09:40.001Z,19.90
2022-10-12T03:12:06.777Z,20.10
2022-10-12T03:14:35.091Z,20.38
2022-10-12T03:17:01.842Z,19.60
2022-10-12T03:19:28.594Z,20.40
2022-10-12T03:21:55.341Z,20.15
2022-10-12T03:24:22.131Z,21.08
2022-10-12T03:26:49.184Z,21.98
2022-10-12T03:29:15.919Z,21.75
2022-10-12T03:31:42.656Z,21.33
2022-10-12T03:34:09.380Z,22.63
2022-10-12T03:36:36.141Z,22.88
2022-10-12T03:39:02.910Z,23.42
2022-10-12T03:41:29.718Z,22.20
2022-10-12T03:43:56.491Z,21.42
2022-10-12T03:46:23.326Z,22.20
2022-10-12T03:48:50.079Z,20.98
2022-10-12T03:51:16.793Z,21.55
2022-10-12T03:53:45.509Z,21.70
2022-10-12T03:56:12.921Z,21.80
2022-10-12T03:58:39.831Z,21.48
2022-10-12T04:01:06.657Z,21.60
2022-10-12T04:03:33.429Z,21.90
2022-10-12T04:06:00.282Z,21.15
2022-10-12T04:08:27.202Z,21.50
2022-10-12T04:10:54.237Z,22.67
2022-10-12T04:13:21.049Z,22.90
2022-10-12T04:15:47.814Z,22.70
2022-10-12T04:18:14.990Z,22.75
2022-10-12T04:20:41.745Z,24.80
2022-10-12T04:23:08.502Z,24.60
2022-10-12T04:25:35.642Z,25.35
2022-10-12T04:28:02.432Z,25.80
2022-10-12T04:30:29.245Z,25.20
2022-10-12T04:32:56.086Z,26.65
2022-10-12T04:35:22.810Z,25.40
2022-10-12T04:37:49.517Z,24.23
2022-10-12T04:40:16.316Z,23.45
2022-10-12T04:42:43.069Z,23.45
2022-10-12T04:45:10.154Z,22.67
2022-10-12T04:47:37.304Z,23.05
2022-10-12T04:50:05.232Z,21.42
2022-10-12T04:52:32.206Z,21.83
2022-10-12T04:54:59.019Z,20.88
2022-10-12T04:57:25.744Z,22.27
2022-10-12T04:59:52.474Z,21.23
2022-10-12T05:02:19.237Z,21.40
2022-10-12T05:04:45.995Z,21.67
2022-10-12T05:07:12.750Z,19.10
2022-10-12T05:09:39.577Z,19.90
2022-10-12T05:12:06.458Z,19.38
2022-10-12T05:14:35.843Z,20.00
2022-10-12T05:17:03.166Z,18.63
2022-10-12T05:19:29.952Z,18.42
2022-10-12T05:21:56.701Z,18.92
2022-10-12T05:24:23.476Z,18.08
2022-10-12T05:26:50.197Z,18.30
2022-10-12T05:29:16.921Z,18.48
2022-10-12T05:31:43.630Z,18.35
2022-10-12T05:34:10.412Z,18.13
2022-10-12T05:36:37.254Z,18.05
2022-10-12T05:39:04.350Z,19.13
2022-10-12T05:41:31.137Z,17.73
2022-10-12T05:43:57.849Z,17.33
2022-10-12T05:46:24.594Z,18.40
2022-10-12T05:48:51.359Z,17.42
2022-10-12T05:51:18.107Z,17.92
2022-10-12T05:53:44.840Z,17.75
2022-10-12T05:56:11.596Z,17.55
2022-10-12T05:58:38.550Z,16.27
2022-10-12T06:01:11.457Z,17.10
2022-10-12T06:03:38.311Z,16.92
2022-10-12T06:06:06.933Z,17.48
2022-10-12T06:08:34.635Z,17.40
2022-10-12T06:11:01.373Z,17.88
2022-10-12T06:13:28.219Z,16.90
2022-10-12T06:15:55.007Z,15.88
2022-10-12T06:18:22.058Z,16.98
2022-10-12T06:20:56.496Z,17.73
2022-10-12T06:23:35.783Z,18.20
2022-10-12T06:26:02.520Z,17.52
2022-10-12T06:28:29.392Z,17.90
2022-10-12T06:30:58.398Z,17.98
2022-10-12T06:33:25.910Z,16.92
2022-10-12T06:35:53.416Z,17.15
2022-10-12T06:38:20.250Z,17.38
2022-10-12T06:40:47.146Z,16.77
2022-10-12T06:43:14.312Z,16.88
2022-10-12T06:45:41.143Z,16.50
2022-10-12T06:48:08.367Z,16.02
2022-10-12T06:50:35.250Z,16.02
2022-10-12T06:53:02.080Z,16.00
2022-10-12T06:55:29.627Z,16.77
2022-10-12T06:57:56.647Z,16.23
2022-10-12T07:00:23.787Z,15.63
2022-10-12T07:02:51.754Z,16.35
2022-10-12T07:05:21.000Z,15.85
2022-10-12T07:07:47.828Z,15.45
2022-10-12T07:10:14.671Z,16.15
2022-10-12T07:12:41.511Z,15.10
2022-10-12T07:15:08.824Z,16.25
2022-10-12T07:17:35.937Z,16.30
2022-10-12T07:20:03.278Z,14.93
2022-10-12T07:22:30.224Z,15.25
2022-10-12T07:24:56.971Z,14.95
2022-10-12T07:27:23.773Z,15.38
2022-10-12T07:29:51.657Z,15.25
2022-10-12T07:32:18.428Z,15.38
2022-10-12T07:34:45.231Z,15.35
2022-10-12T07:37:12.635Z,15.55
2022-10-12T07:39:41.463Z,15.98
2022-10-12T07:42:08.236Z,15.18
2022-10-12T07:44:35.003Z,16.17
2022-10-12T07:47:01.733Z,15.90
2022-10-12T07:49:28.493Z,15.98
2022-10-12T07:51:55.255Z,15.75
2022-10-12T07:54:28.241Z,15.52
2022-10-12T07:56:56.420Z,15.73
2022-10-12T07:59:23.320Z,15.02
2022-10-12T08:01:50.143Z,15.95
2022-10-12T08:04:16.989Z,16.45
2022-10-12T08:06:44.118Z,15.52
2022-10-12T08:09:10.869Z,15.45
2022-10-12T08:11:40.094Z,15.40
2022-10-12T08:14:12.367Z,16.55
2022-10-12T08:16:39.087Z,15.35
2022-10-12T08:19:06.018Z,15.23
2022-10-12T08:21:32.988Z,15.63
2022-10-12T08:23:59.727Z,15.77
2022-10-12T08:26:27.335Z,15.90
2022-10-12T08:28:54.204Z,15.38
2022-10-12T08:31:20.976Z,15.80
2022-10-12T08:33:47.707Z,14.98
2022-10-12T08:36:14.572Z,16.63
2022-10-12T08:38:43.499Z,16.13
2022-10-12T08:41:19.070Z,15.13
2022-10-12T08:44:02.409Z,15.45
2022-10-12T08:46:29.721Z,15.98
2022-10-12T08:49:16.389Z,14.48
2022-10-12T08:51:53.902Z,15.85
2022-10-12T08:54:24.453Z,15.68
2022-10-12T08:56:54.262Z,14.38
2022-10-12T08:59:21.622Z,15.27
2022-10-12T09:02:03.373Z,16.30
2022-10-12T09:05:08.872Z,15.35
2022-10-12T09:07:45.885Z,16.25
2022-10-12T09:10:47.343Z,15.88
2022-10-12T09:13:57.499Z,15.50
2022-10-12T09:16:27.826Z,14.75
2022-10-12T09:19:08.202Z,15.20
2022-10-12T09:21:36.835Z,14.15
2022-10-12T09:24:04.563Z,14.50
2022-10-12T09:26:39.995Z,15.00
2022-10-12T09:29:26.655Z,13.43
2022-10-12T09:32:11.733Z,13.00
2022-10-12T09:34:39.017Z,12.85
2022-10-12T09:37:06.985Z,13.43
2022-10-12T09:39:39.634Z,12.68
2022-10-12T09:42:06.369Z,13.43
2022-10-12T09:44:42.055Z,12.30
2022-10-12T09:47:21.123Z,13.13
2022-10-12T09:49:52.427Z,11.65
2022-10-12T09:52:24.930Z,11.52
2022-10-12T09:55:02.547Z,11.50
2022-10-12T09:57:35.631Z,12.38
2022-10-12T10:00:24.738Z,11.70
2022-10-12T10:02:52.551Z,11.98
2022-10-12T10:05:27.262Z,10.85
2022-10-12T10:08:14.998Z,10.95
2022-10-12T10:10:50.068Z,11.15
2022-10-12T10:13:17.486Z,11.73
2022-10-12T10:15:52.071Z,11.75
2022-10-12T10:18:36.994Z,11.13
2022-10-12T10:21:09.026Z,10.85
2022-10-12T10:23:44.621Z,10.23
2022-10-12T10:26:15.933Z,10.13
2022-10-12T10:28:45.169Z,10.43
2022-10-12T10:31:21.285Z,11.32
2022-10-12T10:34:03.336Z,10.32
2022-10-12T10:36:30.239Z,10.55
2022-10-12T10:39:02.377Z,10.13
2022-10-12T10:41:37.373Z,10.70
2022-10-12T10:44:05.712Z,10.35
2022-10-12T10:46:35.400Z,10.40
2022-10-12T10:49:09.002Z,9.63
2022-10-12T10:51:57.856Z,9.98
2022-10-12T10:54:24.669Z,10.25
2022-10-12T10:56:56.245Z,9.57
2022-10-12T10:59:40.980Z,9.57
2022-10-12T11:02:26.719Z,9.98
2022-10-12T11:05:04.007Z,9.65
2022-10-12T11:07:41.324Z,10.15
2022-10-12T11:10:22.036Z,9.35
2022-10-12T11:12:55.307Z,9.50
2022-10-12T11:20:46.939Z,8.25
2022-10-12T11:26:01.544Z,7.78
2022-10-12T11:28:32.539Z,8.20
2022-10-12T11:31:00.431Z,8.30
2022-10-12T11:33:39.953Z,8.95
2022-10-12T11:36:11.204Z,8.13
2022-10-12T11:38:55.627Z,8.27
2022-10-12T11:41:35.814Z,8.50
2022-10-12T11:44:30.621Z,7.68
2022-10-12T11:47:04.582Z,7.63
2022-10-12T11:52:13.878Z,7.57
2022-10-12T11:55:24.935Z,7.57
2022-10-12T11:57:55.279Z,7.38
2022-10-12T12:00:36.154Z,7.72
2022-10-12T12:03:20.753Z,8.10
2022-10-12T12:05:47.575Z,8.40
2022-10-12T12:08:55.361Z,7.70
2022-10-12T12:11:25.526Z,8.05
2022-10-12T12:14:21.440Z,7.68
2022-10-12T12:16:49.561Z,8.48
2022-10-12T12:19:36.268Z,7.95
2022-10-12T12:22:23.378Z,7.75
2022-10-12T12:25:04.024Z,7.88
2022-10-12T12:27:38.874Z,7.68
2022-10-12T12:30:22.832Z,7.75
2022-10-12T12:33:22.049Z,7.85
2022-10-12T12:35:59.014Z,7.63
2022-10-12T12:38:46.311Z,7.28
2022-10-12T12:41:16.484Z,6.45
2022-10-12T12:43:52.294Z,6.63
2022-10-12T12:46:20.009Z,6.43
2022-10-12T12:48:46.694Z,6.93
2022-10-12T12:51:17.109Z,6.90
2022-10-12T12:53:48.141Z,7.15
2022-10-12T12:56:33.870Z,7.40
2022-10-12T12:59:41.407Z,6.65
2022-10-12T13:02:28.058Z,7.63
2022-10-12T13:05:06.666Z,7.47
2022-10-12T13:07:52.861Z,7.13
2022-10-12T13:10:53.465Z,7.13
2022-10-12T13:13:29.474Z,6.68
2022-10-12T13:16:02.057Z,6.93
2022-10-12T13:18:48.450Z,7.18
2022-10-12T13:21:29.711Z,6.78
2022-10-12T13:24:15.119Z,6.28
2022-10-12T13:26:45.793Z,6.32
2022-10-12T13:29:21.859Z,6.28
2022-10-12T13:31:53.081Z,5.57
2022-10-12T13:34:24.692Z,5.95
2022-10-12T13:37:09.560Z,5.57
2022-10-12T13:39:43.164Z,6.05
2022-10-12T13:42:13.600Z,5.63
2022-10-12T13:44:42.009Z,4.53
2022-10-12T13:47:32.758Z,5.05
2022-10-12T13:50:00.360Z,4.80
2022-10-12T13:52:32.428Z,4.82
2022-10-12T13:55:00.619Z,4.33
2022-10-12T13:57:31.865Z,4.70
2022-10-12T14:00:09.542Z,4.15
2022-10-12T14:02:36.609Z,3.88
2022-10-12T14:05:05.435Z,3.65
2022-10-12T14:07:35.663Z,4.32
2022-10-12T14:10:12.747Z,4.10
2022-10-12T14:12:40.240Z,3.20
2022-10-12T14:15:07.979Z,3.50
2022-10-12T14:17:45.910Z,3.55
2022-10-12T14:20:37.497Z,3.10
2022-10-12T14:23:14.252Z,3.05
2022-10-12T14:25:55.800Z,3.42
2022-10-12T14:28:32.686Z,3.42
2022-10-12T14:30:59.539Z,3.17
2022-10-12T14:33:27.806Z,3.22
2022-10-12T14:36:22.902Z,4.00
2022-10-12T14:38:51.084Z,3.45
2022-10-12T14:41:44.712Z,3.28
2022-10-12T14:44:19.717Z,3.38
2022-10-12T14:47:05.736Z,4.32
2022-10-12T14:49:44.705Z,3.72
2022-10-12T14:52:25.914Z,3.30
2022-10-12T14:57:31.153Z,3.42
2022-10-12T14:59:58.823Z,3.72
2022-10-12T15:02:31.507Z,3.33
2022-10-12T15:04:59.542Z,4.22
2022-10-12T15:07:32.014Z,3.50
2022-10-12T15:09:59.406Z,3.08
2022-10-12T15:12:26.942Z,3.30
2022-10-12T15:14:59.150Z,3.13
2022-10-12T15:17:25.979Z,3.08
2022-10-12T15:19:53.244Z,3.30
2022-10-12T15:22:26.029Z,3.78
2022-10-12T15:24:54.105Z,3.42
2022-10-12T15:27:21.441Z,3.72
2022-10-12T15:29:48.448Z,3.20
2022-10-12T15:32:17.592Z,2.92
2022-10-12T15:34:45.289Z,2.80
2022-10-12T15:37:12.226Z,3.28
2022-10-12T15:39:39.086Z,3.92
2022-10-12T15:42:05.934Z,3.80
2022-10-12T15:44:39.498Z,3.92
2022-10-12T15:47:06.222Z,4.40
2022-10-12T15:49:32.987Z,4.20
2022-10-12T15:52:00.753Z,4.05
2022-10-12T15:54:27.684Z,4.28
2022-10-12T15:56:54.492Z,3.90
2022-10-12T15:59:21.228Z,3.83
2022-10-12T16:01:48.130Z,4.40
2022-10-12T16:04:15.564Z,4.07
2022-10-12T16:06:42.301Z,3.85
2022-10-12T16:09:09.160Z,4.03
2022-10-12T16:11:35.936Z,4.80
2022-10-12T16:14:02.695Z,5.65
2022-10-12T16:16:31.812Z,4.15
2022-10-12T16:18:58.649Z,4.40
2022-10-12T16:21:25.499Z,4.28
2022-10-12T16:23:52.331Z,4.88
2022-10-12T16:26:19.195Z,4.72
2022-10-12T16:28:46.001Z,4.25
2022-10-12T16:31:17.446Z,4.20
2022-10-12T16:33:45.074Z,3.63
2022-10-12T16:36:14.938Z,3.70
2022-10-12T16:38:42.916Z,3.80
2022-10-12T16:41:15.004Z,3.75
2022-10-12T16:43:41.858Z,4.38
2022-10-12T16:46:09.324Z,3.95
2022-10-12T16:48:36.799Z,4.00
2022-10-12T16:51:08.250Z,3.70
2022-10-12T16:53:35.294Z,3.60
2022-10-12T16:56:02.451Z,4.30
2022-10-12T16:58:29.514Z,4.50
2022-10-12T17:00:56.671Z,4.90
2022-10-12T17:03:24.867Z,4.50
2022-10-12T17:06:00.868Z,4.95
2022-10-12T17:08:27.955Z,4.47
2022-10-12T17:10:55.471Z,4.05
2022-10-12T17:13:22.291Z,5.32
2022-10-12T17:15:49.014Z,4.80
2022-10-12T17:18:15.795Z,4.80
2022-10-12T17:20:42.568Z,5.50
2022-10-12T17:23:09.299Z,4.60
2022-10-12T17:25:36.091Z,5.22
2022-10-12T17:28:02.852Z,5.65
2022-10-12T17:30:29.860Z,5.28
2022-10-12T17:32:56.586Z,4.82
2022-10-12T17:35:23.351Z,5.20
2022-10-12T17:37:50.079Z,4.95
2022-10-12T17:40:16.815Z,6.43
2022-10-12T17:42:43.622Z,4.82
2022-10-12T17:45:10.818Z,5.60
2022-10-12T17:47:39.163Z,5.38
2022-10-12T17:50:06.259Z,5.03
2022-10-12T17:52:37.352Z,5.38
2022-10-12T17:55:04.423Z,4.90
2022-10-12T17:57:31.208Z,5.90
2022-10-12T17:59:58.015Z,6.35
2022-10-12T18:02:24.816Z,5.95
2022-10-12T18:04:51.555Z,5.78
2022-10-12T18:07:18.522Z,5.55
2022-10-12T18:09:45.760Z,5.57
2022-10-12T18:12:12.566Z,6.10
2022-10-12T18:14:39.358Z,5.20
2022-10-12T18:17:06.136Z,5.57
2022-10-12T18:19:32.860Z,5.32
2022-10-12T18:21:59.588Z,5.70
2022-10-12T18:24:26.532Z,5.40
2022-10-12T18:26:53.324Z,5.43
2022-10-12T18:29:21.538Z,5.38
2022-10-12T18:31:48.586Z,5.43
2022-10-12T18:34:15.369Z,5.13
2022-10-12T18:36:42.793Z,6.22
2022-10-12T18:39:10.018Z,5.45
2022-10-12T18:41:36.822Z,6.18
2022-10-12T18:44:03.782Z,5.88
2022-10-12T18:46:34.035Z,6.85
2022-10-12T18:49:04.941Z,6.47
2022-10-12T18:51:34.447Z,6.75
2022-10-12T18:54:02.063Z,5.93
2022-10-12T18:56:29.978Z,6.43
2022-10-12T18:58:59.581Z,7.60
2022-10-12T19:01:28.886Z,6.95
2022-10-12T19:03:57.621Z,6.25
2022-10-12T19:06:31.210Z,6.10
2022-10-12T19:08:58.775Z,6.93
2022-10-12T19:11:26.998Z,7.40
2022-10-12T19:13:57.000Z,6.88
2022-10-12T19:16:23.984Z,6.15
2022-10-12T19:18:56.536Z,6.10
2022-10-12T19:21:23.523Z,6.13
2022-10-12T19:23:50.404Z,7.20
2022-10-12T19:26:19.548Z,6.80
2022-10-12T19:28:47.145Z,7.85
2022-10-12T19:31:20.474Z,6.90
2022-10-12T19:33:47.912Z,7.30
2022-10-12T19:36:16.852Z,7.18
2022-10-12T19:38:45.910Z,7.10
2022-10-12T19:41:13.144Z,7.20
2022-10-12T19:43:40.294Z,9.52
2022-10-12T19:46:09.833Z,13.35
2022-10-12T19:48:38.103Z,10.43
2022-10-12T19:51:07.692Z,9.50
2022-10-12T19:53:34.965Z,19.70
2022-10-12T19:56:07.113Z,11.73
2022-10-12T19:58:34.356Z,8.90
2022-10-12T20:01:02.724Z,8.00
2022-10-12T20:03:29.566Z,7.00
2022-10-12T20:05:56.383Z,7.10
2022-10-12T20:08:23.283Z,7.07
2022-10-12T20:10:50.034Z,6.45
2022-10-12T20:13:16.944Z,6.75
2022-10-12T20:15:43.737Z,7.53
2022-10-12T20:18:10.512Z,9.82
2022-10-12T20:20:42.455Z,10.50
2022-10-12T20:23:09.313Z,9.13
2022-10-12T20:25:41.338Z,9.32
2022-10-12T20:28:08.331Z,9.35
2022-10-12T20:30:35.339Z,9.02
2022-10-12T20:33:02.373Z,8.95
2022-10-12T20:35:29.477Z,8.30
2022-10-12T20:37:56.387Z,10.30
2022-10-12T20:40:23.615Z,9.30
2022-10-12T20:42:50.364Z,9.35
2022-10-12T20:45:17.299Z,8.32
2022-10-12T20:47:44.655Z,8.00
2022-10-12T20:50:13.403Z,8.48
2022-10-12T20:52:43.239Z,12.32
2022-10-12T20:55:10.800Z,8.57
2022-10-12T20:57:37.607Z,8.82
2022-10-12T21:00:06.031Z,8.05
2022-10-12T21:02:33.594Z,7.22
2022-10-12T21:05:00.358Z,7.47
2022-10-12T21:07:27.090Z,6.90
2022-10-12T21:09:53.813Z,7.05
2022-10-12T21:12:21.110Z,7.75
2022-10-12T21:14:48.236Z,7.50
2022-10-12T21:17:15.289Z,7.75
2022-10-12T21:19:42.166Z,8.02
2022-10-12T21:22:08.908Z,6.90
2022-10-12T21:24:35.841Z,7.28
2022-10-12T21:27:03.062Z,7.30
2022-10-12T21:29:30.114Z,6.75
2022-10-12T21:31:57.233Z,7.85
2022-10-12T21:34:24.299Z,7.82
2022-10-12T21:36:51.049Z,7.88
2022-10-12T21:39:17.928Z,8.10
2022-10-12T21:41:44.723Z,8.32
2022-10-12T21:44:12.398Z,8.00
2022-10-12T21:46:39.487Z,8.82
2022-10-12T21:49:07.964Z,8.95
2022-10-12T21:51:36.726Z,10.27
2022-10-12T21:54:07.451Z,9.98
2022-10-12T21:56:36.355Z,8.90
2022-10-12T21:59:04.811Z,8.82
2022-10-12T22:01:37.127Z,8.18
2022-10-12T22:04:07.561Z,8.03
2022-10-12T22:06:35.154Z,8.43
2022-10-12T22:09:22.313Z,8.93
2022-10-12T22:11:50.247Z,8.85
2022-10-12T22:14:18.579Z,9.30
2022-10-12T22:16:45.873Z,8.77
2022-10-12T22:19:18.578Z,8.40
2022-10-12T22:21:47.386Z,9.63
2022-10-12T22:24:14.351Z,8.30
2022-10-12T22:26:41.526Z,8.52
2022-10-12T22:29:08.698Z,8.07
2022-10-12T22:31:35.985Z,7.97
2022-10-12T22:34:03.008Z,8.45
2022-10-12T22:36:33.995Z,8.07
2022-10-12T22:39:03.386Z,8.90
2022-10-12T22:41:30.174Z,8.98
2022-10-12T22:43:57.132Z,8.82
2022-10-12T22:46:25.727Z,8.38
2022-10-12T22:48:53.618Z,8.52
2022-10-12T22:51:33.422Z,8.10
2022-10-12T22:54:00.924Z,9.32
2022-10-12T22:56:28.168Z,9.00
2022-10-12T22:59:00.513Z,8.85
2022-10-12T23:01:27.939Z,9.60
2022-10-12T23:03:55.836Z,8.70
2022-10-12T23:06:23.648Z,8.73
2022-10-12T23:08:50.400Z,8.43
2022-10-12T23:11:23.404Z,8.40
2022-10-12T23:13:50.543Z,8.18
2022-10-12T23:16:26.073Z,8.15
2022-10-12T23:19:04.089Z,8.68
2022-10-12T23:21:32.641Z,8.35
2022-10-12T23:24:00.419Z,8.50
2022-10-12T23:26:29.055Z,8.82
2022-10-12T23:28:56.055Z,8.55
2022-10-12T23:31:25.013Z,8.90
2022-10-12T23:34:00.425Z,8.85
2022-10-12T23:36:27.548Z,8.38
2022-10-12T23:38:54.733Z,9.05
2022-10-12T23:41:21.603Z,9.73
2022-10-12T23:43:48.539Z,8.93
2022-10-12T23:46:15.299Z,9.32
2022-10-12T23:48:42.056Z,9.80
2022-10-12T23:51:09.660Z,10.07
2022-10-12T23:53:37.367Z,10.55
2022-10-12T23:56:04.988Z,10.63
2022-10-12T23:58:31.738Z,10.73
